createdAt,value
2019-04-05T00:00:59.191Z,55.40
2019-04-05T00:03:27.979Z,55.50
2019-04-05T00:05:56.609Z,55.50
2019-04-05T00:08:25.458Z,55.80
2019-04-05T00:10:54.173Z,55.60
2019-04-05T00:13:22.838Z,55.60
2019-04-05T00:15:51.513Z,55.60
2019-04-05T00:18:20.194Z,55.60
2019-04-05T00:20:48.884Z,55.90
2019-04-05T00:23:17.516Z,55.80
2019-04-05T00:25:46.183Z,55.80
2019-04-05T00:28:14.761Z,55.70
2019-04-05T00:30:43.570Z,55.50
2019-04-05T00:33:12.242Z,55.70
2019-04-05T00:35:40.879Z,56.10
2019-04-05T00:38:09.477Z,56.10
2019-04-05T00:40:38.214Z,56.20
2019-04-05T00:43:06.811Z,56.20
2019-04-05T00:45:36.234Z,56.30
2019-04-05T00:48:04.941Z,56.20
2019-04-05T00:50:33.680Z,56.20
2019-04-05T00:53:02.310Z,56.10
2019-04-05T00:55:31.022Z,56.50
2019-04-05T00:57:59.791Z,56.60
2019-04-05T01:00:28.434Z,56.60
2019-04-05T01:02:57.157Z,57.00
2019-04-05T01:05:25.997Z,57.00
2019-04-05T01:07:54.837Z,56.70
2019-04-05T01:10:23.562Z,56.70
2019-04-05T01:12:52.330Z,56.90
2019-04-05T01:15:21.136Z,56.90
2019-04-05T01:17:50.130Z,56.80
2019-04-05T01:20:18.855Z,56.80
2019-04-05T01:22:47.833Z,56.80
2019-04-05T01:25:16.660Z,56.90
2019-04-05T01:27:48.216Z,56.80
2019-04-05T01:30:16.188Z,57.20
2019-04-05T01:32:45.619Z,57.40
2019-04-05T01:35:14.498Z,57.30
2019-04-05T01:37:43.526Z,57.40
2019-04-05T01:40:12.436Z,57.50
2019-04-05T01:42:41.779Z,57.50
2019-04-05T01:45:12.271Z,57.50
2019-04-05T01:47:41.329Z,57.60
2019-04-05T01:50:10.625Z,57.50
2019-04-05T01:52:39.909Z,57.30
2019-04-05T01:55:08.893Z,57.00
2019-04-05T01:57:37.649Z,57.50
2019-04-05T02:00:09.404Z,57.30
2019-04-05T02:02:38.134Z,57.70
2019-04-05T02:05:08.741Z,57.70
2019-04-05T02:07:38.302Z,57.50
2019-04-05T02:10:08.646Z,57.70
2019-04-05T02:12:38.294Z,57.70
2019-04-05T02:15:09.259Z,57.70
2019-04-05T02:17:38.092Z,57.90
2019-04-05T02:20:07.957Z,58.00
2019-04-05T02:22:36.939Z,58.50
2019-04-05T02:25:06.998Z,58.80
2019-04-05T02:27:35.844Z,58.60
2019-04-05T02:30:06.507Z,58.80
2019-04-05T02:32:35.227Z,58.90
2019-04-05T02:35:05.446Z,59.10
2019-04-05T02:37:34.065Z,59.70
2019-04-05T02:40:02.768Z,59.40
2019-04-05T02:42:33.321Z,59.50
2019-04-05T02:45:02.808Z,59.70
2019-04-05T02:47:31.962Z,59.90
2019-04-05T02:50:01.998Z,59.80
2019-04-05T02:52:31.242Z,60.10
2019-04-05T02:55:00.329Z,60.10
2019-04-05T02:57:30.215Z,60.10
2019-04-05T02:59:59.952Z,60.00
2019-04-05T03:02:29.745Z,60.50
2019-04-05T03:04:58.461Z,60.10
2019-04-05T03:07:28.028Z,59.80
2019-04-05T03:09:57.791Z,60.70
2019-04-05T03:12:26.943Z,59.80
2019-04-05T03:14:56.207Z,59.70
2019-04-05T03:17:25.339Z,59.60
2019-04-05T03:19:57.014Z,59.90
2019-04-05T03:22:28.450Z,59.80
2019-04-05T03:24:59.111Z,59.90
2019-04-05T03:27:31.105Z,60.10
2019-04-05T03:30:00.274Z,59.80
2019-04-05T03:32:29.040Z,59.90
2019-04-05T03:34:58.564Z,59.70
2019-04-05T03:37:27.528Z,59.90
2019-04-05T03:39:56.349Z,59.80
2019-04-05T03:42:25.264Z,59.80
2019-04-05T03:44:54.008Z,59.60
2019-04-05T03:47:22.859Z,59.80
2019-04-05T03:49:51.586Z,60.80
2019-04-05T03:52:20.294Z,60.50
2019-04-05T03:54:49.318Z,60.10
2019-04-05T03:57:18.129Z,60.10
2019-04-05T03:59:47.244Z,60.10
2019-04-05T04:02:15.894Z,60.00
2019-04-05T04:04:44.670Z,60.20
2019-04-05T04:07:13.918Z,60.40
2019-04-05T04:09:42.735Z,61.10
2019-04-05T04:12:11.428Z,60.70
2019-04-05T04:14:40.167Z,60.70
2019-04-05T04:17:12.825Z,61.20
2019-04-05T04:19:39.465Z,61.20
2019-04-05T04:22:28.462Z,61.30
2019-04-05T04:24:58.358Z,60.60
2019-04-05T04:27:27.974Z,61.30
2019-04-05T04:30:00.211Z,61.30
2019-04-05T04:32:27.283Z,61.50
2019-04-05T04:34:56.093Z,61.50
2019-04-05T04:37:24.762Z,61.40
2019-04-05T04:39:53.825Z,61.40
2019-04-05T04:42:23.654Z,61.20
2019-04-05T04:44:53.624Z,61.50
2019-04-05T04:47:26.945Z,61.30
2019-04-05T04:49:56.086Z,61.00
2019-04-05T04:52:25.283Z,60.80
2019-04-05T04:54:54.107Z,60.60
2019-04-05T04:57:22.938Z,60.50
2019-04-05T04:59:51.755Z,60.70
2019-04-05T05:02:20.526Z,60.00
2019-04-05T05:04:49.554Z,60.30
2019-04-05T05:07:18.916Z,60.10
2019-04-05T05:09:47.974Z,59.80
2019-04-05T05:12:16.882Z,60.10
2019-04-05T05:14:45.620Z,59.90
2019-04-05T05:17:14.331Z,59.80
2019-04-05T05:19:43.391Z,59.60
2019-04-05T05:22:12.212Z,59.00
2019-04-05T05:24:41.451Z,59.00
2019-04-05T05:27:10.812Z,58.60
2019-04-05T05:29:39.641Z,58.70
2019-04-05T05:32:09.784Z,58.70
2019-04-05T05:34:38.745Z,58.80
2019-04-05T05:37:07.679Z,58.60
2019-04-05T05:39:36.309Z,58.60
2019-04-05T05:42:05.044Z,58.20
2019-04-05T05:44:33.745Z,58.10
2019-04-05T05:47:02.480Z,58.50
2019-04-05T05:49:31.152Z,57.70
2019-04-05T05:51:59.993Z,57.80
2019-04-05T05:54:28.691Z,57.80
2019-04-05T05:56:57.269Z,57.20
2019-04-05T05:59:27.800Z,57.30
2019-04-05T06:01:56.230Z,57.30
2019-04-05T06:04:24.800Z,56.90
2019-04-05T06:06:53.654Z,56.60
2019-04-05T06:09:22.318Z,56.60
2019-04-05T06:11:50.965Z,56.20
2019-04-05T06:14:19.747Z,56.20
2019-04-05T06:16:48.251Z,55.70
2019-04-05T06:19:18.586Z,55.70
2019-04-05T06:21:47.252Z,55.30
2019-04-05T06:24:15.826Z,55.20
2019-04-05T06:26:44.623Z,55.00
2019-04-05T06:29:13.335Z,54.80
2019-04-05T06:31:41.962Z,54.60
2019-04-05T06:34:10.637Z,54.80
2019-04-05T06:36:39.663Z,54.30
2019-04-05T06:39:08.929Z,54.20
2019-04-05T06:41:37.722Z,53.90
2019-04-05T06:44:06.379Z,53.10
2019-04-05T06:46:35.012Z,53.00
2019-04-05T06:49:03.985Z,52.70
2019-04-05T06:51:32.579Z,52.40
2019-04-05T06:54:03.345Z,52.30
2019-04-05T06:56:31.647Z,52.10
2019-04-05T06:59:00.218Z,52.80
2019-04-05T07:01:28.875Z,52.00
2019-04-05T07:03:57.632Z,51.60
2019-04-05T07:06:26.314Z,51.20
2019-04-05T07:08:54.946Z,50.70
2019-04-05T07:11:23.659Z,50.40
2019-04-05T07:13:52.404Z,49.70
2019-04-05T07:16:21.181Z,46.20
2019-04-05T07:18:49.861Z,43.20
2019-04-05T07:21:18.581Z,41.20
2019-04-05T07:23:47.269Z,39.20
2019-04-05T07:26:15.991Z,38.40
2019-04-05T07:28:44.586Z,37.50
2019-04-05T07:31:13.268Z,36.00
2019-04-05T07:33:41.856Z,33.80
2019-04-05T07:36:10.522Z,32.30
2019-04-05T07:38:39.156Z,32.20
2019-04-05T07:41:07.960Z,31.90
2019-04-05T07:43:36.565Z,32.00
2019-04-05T07:46:05.334Z,30.90
2019-04-05T07:48:44.027Z,29.40
2019-04-05T07:51:04.448Z,29.50
2019-04-05T07:53:33.043Z,28.20
2019-04-05T07:56:01.687Z,28.50
2019-04-05T07:58:30.329Z,25.60
2019-04-05T08:00:59.062Z,26.80
2019-04-05T08:03:27.847Z,28.10
2019-04-05T08:05:56.577Z,28.60
2019-04-05T08:08:30.962Z,30.00
2019-04-05T08:10:59.915Z,30.50
2019-04-05T08:13:31.143Z,29.40
2019-04-05T08:16:01.412Z,29.90
2019-04-05T08:18:30.397Z,29.00
2019-04-05T08:20:59.079Z,30.30
2019-04-05T08:23:27.693Z,30.70
2019-04-05T08:25:56.283Z,29.20
2019-04-05T08:28:24.922Z,28.70
2019-04-05T08:30:53.779Z,28.10
2019-04-05T08:33:22.634Z,27.70
2019-04-05T08:35:51.268Z,28.10
2019-04-05T08:38:19.829Z,28.30
2019-04-05T08:40:48.474Z,28.40
2019-04-05T08:43:17.166Z,26.80
2019-04-05T08:45:46.084Z,25.10
2019-04-05T08:48:14.846Z,25.10
2019-04-05T08:50:43.548Z,25.40
2019-04-05T08:53:12.274Z,25.70
2019-04-05T08:55:40.915Z,25.70
2019-04-05T08:58:09.787Z,25.50
2019-04-05T09:00:38.537Z,24.10
2019-04-05T09:03:08.221Z,21.60
2019-04-05T09:05:36.849Z,24.70
2019-04-05T09:08:05.805Z,24.40
2019-04-05T09:10:34.727Z,24.10
2019-04-05T09:13:03.584Z,24.40
2019-04-05T09:15:32.176Z,25.00
2019-04-05T09:18:00.926Z,24.00
2019-04-05T09:20:29.617Z,24.40
2019-04-05T09:22:58.335Z,25.20
2019-04-05T09:25:27.059Z,26.20
2019-04-05T09:27:55.765Z,25.90
2019-04-05T09:30:24.465Z,25.10
2019-04-05T09:32:53.253Z,24.90
2019-04-05T09:35:22.019Z,24.80
2019-04-05T09:37:50.772Z,24.80
2019-04-05T09:40:21.135Z,24.50
2019-04-05T09:42:49.949Z,24.10
2019-04-05T09:45:18.643Z,23.50
2019-04-05T09:47:47.246Z,24.10
2019-04-05T09:50:16.170Z,23.00
2019-04-05T09:52:44.922Z,22.70
2019-04-05T09:55:13.619Z,24.20
2019-04-05T09:57:42.326Z,25.10
2019-04-05T10:00:20.478Z,24.10
2019-04-05T10:02:49.195Z,24.30
2019-04-05T10:05:17.781Z,23.30
2019-04-05T10:07:54.921Z,20.10
2019-04-05T10:10:17.029Z,20.20
2019-04-05T10:12:45.760Z,22.10
2019-04-05T10:15:14.463Z,23.20
2019-04-05T10:17:43.142Z,23.50
2019-04-05T10:20:11.986Z,24.00
2019-04-05T10:22:40.549Z,23.50
2019-04-05T10:25:09.541Z,22.60
2019-04-05T10:27:38.203Z,23.70
2019-04-05T10:30:12.093Z,23.80
2019-04-05T10:32:40.871Z,24.00
2019-04-05T10:35:09.812Z,22.30
2019-04-05T10:37:38.391Z,21.50
2019-04-05T10:40:07.695Z,22.30
2019-04-05T10:42:37.549Z,23.30
2019-04-05T10:45:10.958Z,23.20
2019-04-05T10:47:39.839Z,23.80
2019-04-05T10:50:11.507Z,23.90
2019-04-05T10:52:40.911Z,23.40
2019-04-05T10:55:11.004Z,23.70
2019-04-05T10:57:39.602Z,23.40
2019-04-05T11:00:14.851Z,22.60
2019-04-05T11:02:43.550Z,22.50
2019-04-05T11:05:12.852Z,21.80
2019-04-05T11:07:41.525Z,18.80
2019-04-05T11:10:10.762Z,20.20
2019-04-05T11:12:39.354Z,19.50
2019-04-05T11:15:08.403Z,20.30
2019-04-05T11:17:38.415Z,20.80
2019-04-05T11:20:20.764Z,21.00
2019-04-05T11:22:40.070Z,21.20
2019-04-05T11:25:10.818Z,21.90
2019-04-05T11:27:39.457Z,22.60
2019-04-05T11:30:10.877Z,20.60
2019-04-05T11:32:39.564Z,22.00
2019-04-05T11:35:09.072Z,22.30
2019-04-05T11:37:39.670Z,21.10
2019-04-05T11:40:10.255Z,21.80
2019-04-05T11:42:39.092Z,22.30
2019-04-05T11:45:11.265Z,21.30
2019-04-05T11:47:42.603Z,22.10
2019-04-05T11:50:12.261Z,22.90
2019-04-05T11:52:40.998Z,22.90
2019-04-05T11:55:10.062Z,22.80
2019-04-05T11:57:40.940Z,23.20
2019-04-05T12:00:13.644Z,23.10
2019-04-05T12:02:55.912Z,22.90
2019-04-05T12:05:26.879Z,23.70
2019-04-05T12:07:58.569Z,23.90
2019-04-05T12:10:25.258Z,23.80
2019-04-05T12:12:53.890Z,24.50
2019-04-05T12:15:22.498Z,23.80
2019-04-05T12:17:51.134Z,23.50
2019-04-05T12:20:20.015Z,23.40
2019-04-05T12:22:48.672Z,23.80
2019-04-05T12:25:17.226Z,23.30
2019-04-05T12:27:45.885Z,24.00
2019-04-05T12:30:16.827Z,24.30
2019-04-05T12:32:46.660Z,24.10
2019-04-05T12:35:15.888Z,23.50
2019-04-05T12:37:50.623Z,23.90
2019-04-05T12:40:15.877Z,24.50
2019-04-05T12:42:44.486Z,24.20
2019-04-05T12:45:15.280Z,24.40
2019-04-05T12:47:45.603Z,24.10
2019-04-05T12:50:15.545Z,24.60
2019-04-05T12:52:44.256Z,25.00
2019-04-05T12:55:13.184Z,24.30
2019-04-05T12:57:41.854Z,25.30
2019-04-05T13:00:14.252Z,24.80
2019-04-05T13:02:43.372Z,24.90
2019-04-05T13:05:12.461Z,24.60
2019-04-05T13:07:41.143Z,25.00
2019-04-05T13:10:10.140Z,24.90
2019-04-05T13:12:38.813Z,25.10
2019-04-05T13:15:13.851Z,24.70
2019-04-05T13:17:38.335Z,24.40
2019-04-05T13:20:08.896Z,24.50
2019-04-05T13:22:37.627Z,24.50
2019-04-05T13:25:10.717Z,25.50
2019-04-05T13:27:41.337Z,26.00
2019-04-05T13:30:08.512Z,25.50
2019-04-05T13:32:37.213Z,25.60
2019-04-05T13:35:07.199Z,25.50
2019-04-05T13:37:35.906Z,25.40
2019-04-05T13:40:06.498Z,25.40
2019-04-05T13:42:35.529Z,25.80
2019-04-05T13:45:07.100Z,26.10
2019-04-05T13:47:38.179Z,26.00
2019-04-05T13:50:10.888Z,26.20
2019-04-05T13:52:41.461Z,25.50
2019-04-05T13:55:10.454Z,25.20
2019-04-05T13:57:40.873Z,25.60
2019-04-05T14:00:10.304Z,26.00
2019-04-05T14:02:38.959Z,26.20
2019-04-05T14:05:07.746Z,26.50
2019-04-05T14:07:36.310Z,26.20
2019-04-05T14:10:10.519Z,26.30
2019-04-05T14:12:40.113Z,25.60
2019-04-05T14:15:11.283Z,26.90
2019-04-05T14:17:41.763Z,26.50
2019-04-05T14:20:10.314Z,26.60
2019-04-05T14:22:38.962Z,26.40
2019-04-05T14:25:08.449Z,26.50
2019-04-05T14:27:37.106Z,27.00
2019-04-05T14:30:07.359Z,27.10
2019-04-05T14:32:36.032Z,26.10
2019-04-05T14:35:07.946Z,26.30
2019-04-05T14:37:37.010Z,25.90
2019-04-05T14:40:07.110Z,26.50
2019-04-05T14:42:35.752Z,26.80
2019-04-05T14:45:09.306Z,27.00
2019-04-05T14:47:38.066Z,27.10
2019-04-05T14:50:08.534Z,27.80
2019-04-05T14:52:37.249Z,27.30
2019-04-05T14:55:06.190Z,27.30
2019-04-05T14:57:36.569Z,27.30
2019-04-05T15:00:08.816Z,27.10
2019-04-05T15:02:37.442Z,26.60
2019-04-05T15:05:08.399Z,27.10
2019-04-05T15:07:37.929Z,27.20
2019-04-05T15:10:07.572Z,27.40
2019-04-05T15:12:36.306Z,27.60
2019-04-05T15:15:09.396Z,27.50
2019-04-05T15:17:47.867Z,27.10
2019-04-05T15:20:10.168Z,28.30
2019-04-05T15:22:41.584Z,27.70
2019-04-05T15:25:09.774Z,28.30
2019-04-05T15:27:38.514Z,27.80
2019-04-05T15:30:07.824Z,27.90
2019-04-05T15:32:37.426Z,27.90
2019-04-05T15:35:07.830Z,28.30
2019-04-05T15:37:37.611Z,28.60
2019-04-05T15:40:08.547Z,28.30
2019-04-05T15:42:37.197Z,28.00
2019-04-05T15:45:15.733Z,28.10
2019-04-05T15:47:42.354Z,28.10
2019-04-05T15:50:11.376Z,28.20
2019-04-05T15:52:39.984Z,28.40
2019-04-05T15:55:08.922Z,28.10
2019-04-05T15:57:39.422Z,27.80
2019-04-05T16:00:11.149Z,28.00
2019-04-05T16:02:42.750Z,28.10
2019-04-05T16:05:10.687Z,28.20
2019-04-05T16:07:39.419Z,28.20
2019-04-05T16:10:10.309Z,28.20
2019-04-05T16:12:38.965Z,28.30
2019-04-05T16:15:08.173Z,28.60
2019-04-05T16:17:36.925Z,28.90
2019-04-05T16:20:11.386Z,29.10
2019-04-05T16:22:40.013Z,28.90
2019-04-05T16:25:10.314Z,28.90
2019-04-05T16:27:39.053Z,29.50
2019-04-05T16:30:08.564Z,29.70
2019-04-05T16:32:37.237Z,30.00
2019-04-05T16:35:06.684Z,29.90
2019-04-05T16:37:35.538Z,29.90
2019-04-05T16:40:07.266Z,30.00
2019-04-05T16:42:35.920Z,30.20
2019-04-05T16:45:10.140Z,30.00
2019-04-05T16:47:38.913Z,30.30
2019-04-05T16:50:08.519Z,30.00
2019-04-05T16:52:44.886Z,30.70
2019-04-05T16:55:07.688Z,30.90
2019-04-05T16:57:36.292Z,30.60
2019-04-05T17:00:07.493Z,30.90
2019-04-05T17:02:36.117Z,31.20
2019-04-05T17:05:06.768Z,31.60
2019-04-05T17:07:35.325Z,31.60
2019-04-05T17:10:04.977Z,31.50
2019-04-05T17:12:33.765Z,31.70
2019-04-05T17:15:02.477Z,31.90
2019-04-05T17:17:31.066Z,31.90
2019-04-05T17:19:59.804Z,31.90
2019-04-05T17:22:28.473Z,32.20
2019-04-05T17:24:57.137Z,32.30
2019-04-05T17:27:25.737Z,32.30
2019-04-05T17:29:54.438Z,32.80
2019-04-05T17:32:22.995Z,32.70
2019-04-05T17:34:51.643Z,32.60
2019-04-05T17:37:20.357Z,32.80
2019-04-05T17:39:49.030Z,33.20
2019-04-05T17:42:17.613Z,33.20
2019-04-05T17:44:46.233Z,33.30
2019-04-05T17:47:14.878Z,33.30
2019-04-05T17:49:43.463Z,33.50
2019-04-05T17:52:12.090Z,33.60
2019-04-05T17:54:40.687Z,33.90
2019-04-05T17:57:09.375Z,33.90
2019-04-05T17:59:38.764Z,33.60
2019-04-05T18:02:07.587Z,33.90
2019-04-05T18:04:36.198Z,33.90
2019-04-05T18:07:04.967Z,34.40
2019-04-05T18:09:33.560Z,34.30
2019-04-05T18:12:02.131Z,34.20
2019-04-05T18:14:30.756Z,34.20
2019-04-05T18:16:59.430Z,34.40
2019-04-05T18:19:28.034Z,34.60
2019-04-05T18:21:56.641Z,34.70
2019-04-05T18:24:25.244Z,34.70
2019-04-05T18:26:53.912Z,34.80
2019-04-05T18:29:22.598Z,35.00
2019-04-05T18:31:51.199Z,34.60
2019-04-05T18:34:19.807Z,35.00
2019-04-05T18:36:48.484Z,35.00
2019-04-05T18:39:17.077Z,35.50
2019-04-05T18:41:45.675Z,35.40
2019-04-05T18:44:14.349Z,35.50
2019-04-05T18:46:42.985Z,36.30
2019-04-05T18:49:11.599Z,36.00
2019-04-05T18:51:40.226Z,36.00
2019-04-05T18:54:08.953Z,36.00
2019-04-05T18:56:37.635Z,36.20
2019-04-05T18:59:06.318Z,36.10
2019-04-05T19:01:34.978Z,35.90
2019-04-05T19:04:05.452Z,36.00
2019-04-05T19:06:34.033Z,36.10
2019-04-05T19:09:02.701Z,36.00
2019-04-05T19:11:31.293Z,35.80
2019-04-05T19:14:01.273Z,35.70
2019-04-05T19:16:30.178Z,36.00
2019-04-05T19:18:58.785Z,36.00
2019-04-05T19:21:27.459Z,35.80
2019-04-05T19:23:56.035Z,36.10
2019-04-05T19:26:24.666Z,35.60
2019-04-05T19:28:53.429Z,35.90
2019-04-05T19:48:54.357Z,35.20
2019-04-05T19:51:23.002Z,35.00
2019-04-05T19:54:00.793Z,35.60
2019-04-05T19:56:21.885Z,35.60
2019-04-05T19:58:50.541Z,35.90
2019-04-05T20:01:19.249Z,36.00
2019-04-05T20:03:47.867Z,35.80
2019-04-05T20:06:16.507Z,36.50
2019-04-05T20:08:45.123Z,36.00
2019-04-05T20:11:13.773Z,36.50
2019-04-05T20:13:42.478Z,36.90
2019-04-05T20:16:11.034Z,37.40
2019-04-05T20:18:39.739Z,37.40
2019-04-05T20:21:08.479Z,37.20
2019-04-05T20:23:42.989Z,37.50
2019-04-05T20:26:07.658Z,37.40
2019-04-05T20:28:36.226Z,37.50
2019-04-05T20:31:04.950Z,38.20
2019-04-05T20:33:33.504Z,38.20
2019-04-05T20:36:02.193Z,38.40
2019-04-05T20:38:30.757Z,38.60
2019-04-05T20:40:59.519Z,39.00
2019-04-05T20:43:28.119Z,39.10
2019-04-05T20:45:56.794Z,39.60
2019-04-05T20:48:25.547Z,39.80
2019-04-05T20:50:54.227Z,40.00
2019-04-05T20:53:22.860Z,40.50
2019-04-05T20:55:51.491Z,40.20
2019-04-05T20:58:20.102Z,40.50
2019-04-05T21:00:48.746Z,40.60
2019-04-05T21:03:17.301Z,40.50
2019-04-05T21:05:45.969Z,40.80
2019-04-05T21:08:14.622Z,41.50
2019-04-05T21:10:43.270Z,41.70
2019-04-05T21:13:11.871Z,41.80
2019-04-05T21:15:40.456Z,42.10
2019-04-05T21:18:09.057Z,42.50
2019-04-05T21:20:37.663Z,43.00
2019-04-05T21:23:06.410Z,43.50
2019-04-05T21:25:35.206Z,43.70
2019-04-05T21:28:03.766Z,43.50
2019-04-05T21:30:32.523Z,43.40
2019-04-05T21:33:01.093Z,43.80
2019-04-05T21:35:29.762Z,43.80
2019-04-05T21:37:58.358Z,43.30
2019-04-05T21:40:26.964Z,43.30
2019-04-05T21:42:55.577Z,43.00
2019-04-05T21:45:24.451Z,42.60
2019-04-05T21:47:53.171Z,43.30
2019-04-05T21:50:21.748Z,42.80
2019-04-05T21:52:50.341Z,42.10
2019-04-05T21:55:18.938Z,42.10
2019-04-05T21:57:47.513Z,42.50
2019-04-05T22:00:25.152Z,42.20
2019-04-05T22:02:53.716Z,42.70
2019-04-05T22:05:22.670Z,42.20
2019-04-05T22:07:51.679Z,42.10
2019-04-05T22:10:20.415Z,42.70
2019-04-05T22:12:49.055Z,42.60
2019-04-05T22:15:17.756Z,42.90
2019-04-05T22:17:46.380Z,43.10
2019-04-05T22:20:15.176Z,43.10
2019-04-05T22:22:43.825Z,43.20
2019-04-05T22:25:12.666Z,43.70
2019-04-05T22:27:41.317Z,43.50
2019-04-05T22:30:10.088Z,43.40
2019-04-05T22:32:38.690Z,43.40
2019-04-05T22:35:07.605Z,43.90
2019-04-05T22:37:36.176Z,43.00
2019-04-05T22:40:06.767Z,43.90
2019-04-05T22:42:35.356Z,43.50
2019-04-05T22:45:05.887Z,43.30
2019-04-05T22:47:34.943Z,43.70
2019-04-05T22:50:07.570Z,43.70
2019-04-05T22:52:36.104Z,43.90
2019-04-05T22:55:11.491Z,44.10
2019-04-05T22:57:36.593Z,44.10
2019-04-05T23:00:07.368Z,44.40
2019-04-05T23:02:36.113Z,43.40
2019-04-05T23:05:07.491Z,43.70
2019-04-05T23:07:37.591Z,43.60
2019-04-05T23:10:08.166Z,43.50
2019-04-05T23:12:36.803Z,43.40
2019-04-05T23:15:08.866Z,43.80
2019-04-05T23:17:37.531Z,44.20
2019-04-05T23:20:07.187Z,43.60
2019-04-05T23:22:35.789Z,43.60
2019-04-05T23:25:06.894Z,43.40
2019-04-05T23:27:35.714Z,43.30
2019-04-05T23:30:06.011Z,43.20
2019-04-05T23:32:34.581Z,43.10
2019-04-05T23:35:03.654Z,42.90
2019-04-05T23:37:32.364Z,43.00
2019-04-05T23:40:00.952Z,43.10
2019-04-05T23:42:29.513Z,42.90
2019-04-05T23:44:58.191Z,43.30
2019-04-05T23:47:26.728Z,43.60
2019-04-05T23:49:55.462Z,43.90
2019-04-05T23:52:24.291Z,43.90
2019-04-05T23:54:52.963Z,43.80
2019-04-05T23:57:21.718Z,44.40
2019-04-05T23:59:50.296Z,44.20
